Aeroporto :
LOGIN :

Iscrizione | Disclaimer

   EN    FR    IT 

 










Sommario :    VFR   VFR Marginale   IFR   IFR Intensivo   IFR Molto Intensivo
Visibilità : 
Base nubi : 
>= 8 km
>= 3000ft
5 / 8 km
1000 / 3000 ft
1500m / 5 km
500 / 1000 ft
800 / 1500m
200 / 500 ft
< 800m
< 200 ft
Simboli :   Temporali  Nebbia  Neve Forte  Precipitazioni Forti  Vento > 20 kt
SIGMETs :   Varie  Temporali  Ghiacco  Turbolenza  Onda orograficha  Ceneri Vulcaniche






- Altitudine del aeroporto : 46 ft
- Codice IATA : SNN


EINN - Shannon

ULTIMO METAR :
  • 011230Z 22004KT 9999 FEW028 BKN200 24/12 Q1024 NOSIG

METARs OBSOLETI :
  • 011200Z 19005KT 9999 FEW028 BKN200 23/11 Q1024 NOSIG
  • 011130Z 23005KT 9999 FEW032 BKN200 22/10 Q1024 NOSIG
  • 011100Z 18002KT 9999 FEW035 SCT200 22/11 Q1024 NOSIG
  • 011030Z 19002KT 9999 FEW035 SCT200 22/09 Q1024 NOSIG
  • 011000Z 13003KT CAVOK 21/08 Q1024 NOSIG

TAF TAF EINN
Valido dal 01 a 12 ore il 02 a 12 ore UTC


011100Z 0112/0212 VRB03KT 9999 FEW035
BECMG 0116/0118 34010KT
BECMG 0122/0124 15005KT
BECMG 0200/0202 VRB03KT
BECMG 0209/0211 33010KT



MetMap, La meteo Aeronautica in un colpo d'occhio ! - Copyright ORBIFLY Dicembre 2007 - Disclaimer

ORBIFLY MET'MAP TEAM :

Programmazione e sviluppo : Alexandra Zaïnal
Concezione : Baudouin d'Aumeries
Aiuto per la programmazione : Marc-Olivier Méhu
Supporto tecnico e logistico : Manuel Goepfert
Aiuto per la traduzione : Arnaldo La Scala

Contatto : metmap@orbifly.com




FONTI E CREDITI :

   NOAA